sensor_id;sensor_type;location;lat;lon;timestamp;temperature;humidity
3023;DHT22;1521;53.584;9.938;2022-12-26T00:01:26;7.00;99.90
3023;DHT22;1521;53.584;9.938;2022-12-26T00:03:54;7.00;99.90
3023;DHT22;1521;53.584;9.938;2022-12-26T00:06:22;7.00;99.90
3023;DHT22;1521;53.584;9.938;2022-12-26T00:08:48;6.90;99.90
3023;DHT22;1521;53.584;9.938;2022-12-26T00:11:15;7.00;99.90
3023;DHT22;1521;53.584;9.938;2022-12-26T00:13:41;6.90;99.90
3023;DHT22;1521;53.584;9.938;2022-12-26T00:16:12;6.90;99.90
3023;DHT22;1521;53.584;9.938;2022-12-26T00:18:38;6.90;99.90
3023;DHT22;1521;53.584;9.938;2022-12-26T00:21:05;6.90;99.90
3023;DHT22;1521;53.584;9.938;2022-12-26T00:23:35;6.90;99.90
3023;DHT22;1521;53.584;9.938;2022-12-26T00:26:06;6.90;99.90
3023;DHT22;1521;53.584;9.938;2022-12-26T00:28:32;6.90;99.90
3023;DHT22;1521;53.584;9.938;2022-12-26T00:30:57;6.90;99.90
3023;DHT22;1521;53.584;9.938;2022-12-26T00:33:23;6.90;99.90
3023;DHT22;1521;53.584;9.938;2022-12-26T00:35:49;6.90;99.90
3023;DHT22;1521;53.584;9.938;2022-12-26T00:38:14;6.90;99.90
3023;DHT22;1521;53.584;9.938;2022-12-26T00:40:41;6.90;99.90
3023;DHT22;1521;53.584;9.938;2022-12-26T00:43:10;6.90;99.90
3023;DHT22;1521;53.584;9.938;2022-12-26T00:45:36;6.90;99.90
3023;DHT22;1521;53.584;9.938;2022-12-26T00:48:02;6.90;99.90
3023;DHT22;1521;53.584;9.938;2022-12-26T00:50:27;6.90;99.90
3023;DHT22;1521;53.584;9.938;2022-12-26T00:52:53;6.80;99.90
3023;DHT22;1521;53.584;9.938;2022-12-26T00:55:21;6.90;99.90
3023;DHT22;1521;53.584;9.938;2022-12-26T00:57:46;6.80;99.90
3023;DHT22;1521;53.584;9.938;2022-12-26T01:00:12;6.80;99.90
3023;DHT22;1521;53.584;9.938;2022-12-26T01:02:38;6.80;99.90
3023;DHT22;1521;53.584;9.938;2022-12-26T01:05:09;6.80;99.90
3023;DHT22;1521;53.584;9.938;2022-12-26T01:07:35;6.80;99.90
3023;DHT22;1521;53.584;9.938;2022-12-26T01:10:03;6.80;99.90
3023;DHT22;1521;53.584;9.938;2022-12-26T01:12:29;6.80;99.90
3023;DHT22;1521;53.584;9.938;2022-12-26T01:14:56;6.80;99.90
3023;DHT22;1521;53.584;9.938;2022-12-26T01:17:23;6.80;99.90
3023;DHT22;1521;53.584;9.938;2022-12-26T01:19:48;6.80;99.90
3023;DHT22;1521;53.584;9.938;2022-12-26T01:22:14;6.80;99.90
3023;DHT22;1521;53.584;9.938;2022-12-26T01:24:39;6.80;99.90
3023;DHT22;1521;53.584;9.938;2022-12-26T01:27:05;6.80;99.90
3023;DHT22;1521;53.584;9.938;2022-12-26T01:29:31;6.80;99.90
3023;DHT22;1521;53.584;9.938;2022-12-26T01:31:56;6.80;99.90
3023;DHT22;1521;53.584;9.938;2022-12-26T01:34:22;6.80;99.90
3023;DHT22;1521;53.584;9.938;2022-12-26T01:36:47;6.80;99.90
3023;DHT22;1521;53.584;9.938;2022-12-26T01:39:13;6.80;99.90
3023;DHT22;1521;53.584;9.938;2022-12-26T01:41:39;6.90;99.90
3023;DHT22;1521;53.584;9.938;2022-12-26T01:47:07;6.90;99.90
3023;DHT22;1521;53.584;9.938;2022-12-26T01:49:40;6.90;99.90
3023;DHT22;1521;53.584;9.938;2022-12-26T01:52:10;6.90;99.90
3023;DHT22;1521;53.584;9.938;2022-12-26T01:54:39;6.90;99.90
3023;DHT22;1521;53.584;9.938;2022-12-26T01:57:12;6.90;99.90
3023;DHT22;1521;53.584;9.938;2022-12-26T01:59:40;6.90;99.90
3023;DHT22;1521;53.584;9.938;2022-12-26T02:02:07;6.90;99.90
3023;DHT22;1521;53.584;9.938;2022-12-26T02:04:35;6.90;99.90
3023;DHT22;1521;53.584;9.938;2022-12-26T02:07:20;6.90;99.90
3023;DHT22;1521;53.584;9.938;2022-12-26T02:09:47;6.90;99.90
3023;DHT22;1521;53.584;9.938;2022-12-26T02:12:19;6.90;99.90
3023;DHT22;1521;53.584;9.938;2022-12-26T02:14:46;6.90;99.90
3023;DHT22;1521;53.584;9.938;2022-12-26T02:17:12;6.90;99.90
3023;DHT22;1521;53.584;9.938;2022-12-26T02:22:37;6.90;99.90
3023;DHT22;1521;53.584;9.938;2022-12-26T02:25:27;7.00;99.90
3023;DHT22;1521;53.584;9.938;2022-12-26T02:28:53;7.00;99.90
3023;DHT22;1521;53.584;9.938;2022-12-26T02:31:17;7.00;99.90
3023;DHT22;1521;53.584;9.938;2022-12-26T02:33:54;7.00;99.90
3023;DHT22;1521;53.584;9.938;2022-12-26T02:39:07;6.90;99.90
3023;DHT22;1521;53.584;9.938;2022-12-26T02:44:23;6.90;99.90
3023;DHT22;1521;53.584;9.938;2022-12-26T02:53:08;6.80;99.90
3023;DHT22;1521;53.584;9.938;2022-12-26T02:55:59;6.80;99.90
3023;DHT22;1521;53.584;9.938;2022-12-26T02:59:00;6.90;99.90
3023;DHT22;1521;53.584;9.938;2022-12-26T03:01:48;6.80;99.90
3023;DHT22;1521;53.584;9.938;2022-12-26T03:04:36;6.90;99.90
3023;DHT22;1521;53.584;9.938;2022-12-26T03:07:25;6.90;99.90
3023;DHT22;1521;53.584;9.938;2022-12-26T03:10:19;6.90;99.90
3023;DHT22;1521;53.584;9.938;2022-12-26T03:13:11;6.90;99.90
3023;DHT22;1521;53.584;9.938;2022-12-26T03:15:51;6.90;99.90
3023;DHT22;1521;53.584;9.938;2022-12-26T03:18:43;6.90;99.90
3023;DHT22;1521;53.584;9.938;2022-12-26T03:21:11;6.90;99.90
3023;DHT22;1521;53.584;9.938;2022-12-26T03:23:40;7.00;99.90
3023;DHT22;1521;53.584;9.938;2022-12-26T03:26:15;7.00;99.90
3023;DHT22;1521;53.584;9.938;2022-12-26T03:29:01;7.00;99.90
3023;DHT22;1521;53.584;9.938;2022-12-26T03:31:46;7.10;99.90
3023;DHT22;1521;53.584;9.938;2022-12-26T03:34:11;7.10;99.90
3023;DHT22;1521;53.584;9.938;2022-12-26T03:41:54;7.20;99.90
3023;DHT22;1521;53.584;9.938;2022-12-26T03:44:56;7.20;99.90
3023;DHT22;1521;53.584;9.938;2022-12-26T03:47:49;7.20;99.90
3023;DHT22;1521;53.584;9.938;2022-12-26T03:50:41;7.20;99.90
3023;DHT22;1521;53.584;9.938;2022-12-26T03:56:54;7.30;99.90
3023;DHT22;1521;53.584;9.938;2022-12-26T04:00:05;7.30;99.90
3023;DHT22;1521;53.584;9.938;2022-12-26T04:02:53;7.40;99.90
3023;DHT22;1521;53.584;9.938;2022-12-26T04:05:43;7.40;99.90
3023;DHT22;1521;53.584;9.938;2022-12-26T04:08:53;7.30;99.90
3023;DHT22;1521;53.584;9.938;2022-12-26T04:11:40;7.30;99.90
3023;DHT22;1521;53.584;9.938;2022-12-26T04:14:38;7.40;99.90
3023;DHT22;1521;53.584;9.938;2022-12-26T04:17:44;7.40;99.90
3023;DHT22;1521;53.584;9.938;2022-12-26T04:20:44;7.30;99.90
3023;DHT22;1521;53.584;9.938;2022-12-26T04:23:25;7.40;99.90
3023;DHT22;1521;53.584;9.938;2022-12-26T04:26:21;7.40;99.90
3023;DHT22;1521;53.584;9.938;2022-12-26T04:29:06;7.40;99.90
3023;DHT22;1521;53.584;9.938;2022-12-26T04:31:52;7.40;99.90
3023;DHT22;1521;53.584;9.938;2022-12-26T04:34:53;7.40;99.90
3023;DHT22;1521;53.584;9.938;2022-12-26T04:37:41;7.40;99.90
3023;DHT22;1521;53.584;9.938;2022-12-26T04:40:30;7.40;99.90
3023;DHT22;1521;53.584;9.938;2022-12-26T04:43:17;7.40;99.90
3023;DHT22;1521;53.584;9.938;2022-12-26T04:46:01;7.50;99.90
3023;DHT22;1521;53.584;9.938;2022-12-26T04:48:27;7.50;99.90
3023;DHT22;1521;53.584;9.938;2022-12-26T04:51:11;7.50;99.90
3023;DHT22;1521;53.584;9.938;2022-12-26T04:53:37;7.40;99.90
3023;DHT22;1521;53.584;9.938;2022-12-26T04:56:03;7.40;99.90
3023;DHT22;1521;53.584;9.938;2022-12-26T04:58:28;7.40;99.90
3023;DHT22;1521;53.584;9.938;2022-12-26T05:00:54;7.50;99.90
3023;DHT22;1521;53.584;9.938;2022-12-26T05:03:42;7.50;99.90
3023;DHT22;1521;53.584;9.938;2022-12-26T05:06:27;7.50;99.90
3023;DHT22;1521;53.584;9.938;2022-12-26T05:09:13;7.40;99.90
3023;DHT22;1521;53.584;9.938;2022-12-26T05:12:07;7.40;99.90
3023;DHT22;1521;53.584;9.938;2022-12-26T05:14:34;7.40;99.90
3023;DHT22;1521;53.584;9.938;2022-12-26T05:17:04;7.50;99.90
3023;DHT22;1521;53.584;9.938;2022-12-26T05:19:48;7.40;99.90
3023;DHT22;1521;53.584;9.938;2022-12-26T05:22:35;7.50;99.90
3023;DHT22;1521;53.584;9.938;2022-12-26T05:25:23;7.50;99.90
3023;DHT22;1521;53.584;9.938;2022-12-26T05:28:09;7.50;99.90
3023;DHT22;1521;53.584;9.938;2022-12-26T05:30:54;7.60;99.90
3023;DHT22;1521;53.584;9.938;2022-12-26T05:33:20;7.50;99.90
3023;DHT22;1521;53.584;9.938;2022-12-26T05:36:04;7.50;99.90
3023;DHT22;1521;53.584;9.938;2022-12-26T05:38:30;7.50;99.90
3023;DHT22;1521;53.584;9.938;2022-12-26T05:40:55;7.60;99.90
3023;DHT22;1521;53.584;9.938;2022-12-26T05:43:21;7.60;99.90
3023;DHT22;1521;53.584;9.938;2022-12-26T05:45:47;7.60;99.90
3023;DHT22;1521;53.584;9.938;2022-12-26T05:48:12;7.60;99.90
3023;DHT22;1521;53.584;9.938;2022-12-26T05:50:38;7.60;99.90
3023;DHT22;1521;53.584;9.938;2022-12-26T05:53:03;7.60;99.90
3023;DHT22;1521;53.584;9.938;2022-12-26T05:55:29;7.70;99.90
3023;DHT22;1521;53.584;9.938;2022-12-26T05:57:55;7.70;99.90
3023;DHT22;1521;53.584;9.938;2022-12-26T06:00:21;7.60;99.90
3023;DHT22;1521;53.584;9.938;2022-12-26T06:02:46;7.70;99.90
3023;DHT22;1521;53.584;9.938;2022-12-26T06:05:12;7.60;99.90
3023;DHT22;1521;53.584;9.938;2022-12-26T06:07:37;7.60;99.90
3023;DHT22;1521;53.584;9.938;2022-12-26T06:10:04;7.60;99.90
3023;DHT22;1521;53.584;9.938;2022-12-26T06:12:31;7.70;99.90
3023;DHT22;1521;53.584;9.938;2022-12-26T06:14:56;7.70;99.90
3023;DHT22;1521;53.584;9.938;2022-12-26T06:17:22;7.70;99.90
3023;DHT22;1521;53.584;9.938;2022-12-26T06:19:47;7.70;99.90
3023;DHT22;1521;53.584;9.938;2022-12-26T06:22:13;7.70;99.90
3023;DHT22;1521;53.584;9.938;2022-12-26T06:24:38;7.70;99.90
3023;DHT22;1521;53.584;9.938;2022-12-26T06:27:04;7.80;99.90
3023;DHT22;1521;53.584;9.938;2022-12-26T06:29:29;7.80;99.90
3023;DHT22;1521;53.584;9.938;2022-12-26T06:31:55;7.70;99.90
3023;DHT22;1521;53.584;9.938;2022-12-26T06:34:21;7.80;99.90
3023;DHT22;1521;53.584;9.938;2022-12-26T06:36:46;7.80;99.90
3023;DHT22;1521;53.584;9.938;2022-12-26T06:39:12;7.80;99.90
3023;DHT22;1521;53.584;9.938;2022-12-26T06:41:37;7.80;99.90
3023;DHT22;1521;53.584;9.938;2022-12-26T06:44:03;7.90;99.90
3023;DHT22;1521;53.584;9.938;2022-12-26T06:46:29;7.80;99.90
3023;DHT22;1521;53.584;9.938;2022-12-26T06:48:54;7.80;99.90
3023;DHT22;1521;53.584;9.938;2022-12-26T06:51:24;7.80;99.90
3023;DHT22;1521;53.584;9.938;2022-12-26T06:53:50;7.90;99.90
3023;DHT22;1521;53.584;9.938;2022-12-26T06:56:19;7.90;99.90
3023;DHT22;1521;53.584;9.938;2022-12-26T06:58:45;7.90;99.90
3023;DHT22;1521;53.584;9.938;2022-12-26T07:01:15;7.80;99.90
3023;DHT22;1521;53.584;9.938;2022-12-26T07:03:41;7.90;99.90
3023;DHT22;1521;53.584;9.938;2022-12-26T07:06:23;7.90;99.90
3023;DHT22;1521;53.584;9.938;2022-12-26T07:08:49;7.90;99.90
3023;DHT22;1521;53.584;9.938;2022-12-26T07:11:18;7.90;99.90
3023;DHT22;1521;53.584;9.938;2022-12-26T07:13:44;7.90;99.90
3023;DHT22;1521;53.584;9.938;2022-12-26T07:16:10;8.00;99.90
3023;DHT22;1521;53.584;9.938;2022-12-26T07:18:36;8.00;99.90
3023;DHT22;1521;53.584;9.938;2022-12-26T07:21:07;8.10;99.90
3023;DHT22;1521;53.584;9.938;2022-12-26T07:23:33;8.10;99.90
3023;DHT22;1521;53.584;9.938;2022-12-26T07:25:59;8.10;99.90
3023;DHT22;1521;53.584;9.938;2022-12-26T07:28:25;8.10;99.90
3023;DHT22;1521;53.584;9.938;2022-12-26T07:30:51;8.10;99.90
3023;DHT22;1521;53.584;9.938;2022-12-26T07:33:16;8.10;99.90
3023;DHT22;1521;53.584;9.938;2022-12-26T07:35:42;8.20;99.90
3023;DHT22;1521;53.584;9.938;2022-12-26T07:38:09;8.10;99.90
3023;DHT22;1521;53.584;9.938;2022-12-26T07:40:35;8.20;99.90
3023;DHT22;1521;53.584;9.938;2022-12-26T07:43:01;8.20;99.90
3023;DHT22;1521;53.584;9.938;2022-12-26T07:45:26;8.20;99.90
3023;DHT22;1521;53.584;9.938;2022-12-26T07:47:53;8.20;99.90
3023;DHT22;1521;53.584;9.938;2022-12-26T07:50:19;8.20;99.90
3023;DHT22;1521;53.584;9.938;2022-12-26T07:52:45;8.20;99.90
3023;DHT22;1521;53.584;9.938;2022-12-26T07:55:10;8.30;99.90
3023;DHT22;1521;53.584;9.938;2022-12-26T07:57:36;8.20;99.90
3023;DHT22;1521;53.584;9.938;2022-12-26T08:00:03;8.20;99.90
3023;DHT22;1521;53.584;9.938;2022-12-26T08:02:29;8.20;99.90
3023;DHT22;1521;53.584;9.938;2022-12-26T08:04:54;8.20;99.90
3023;DHT22;1521;53.584;9.938;2022-12-26T08:07:20;8.10;99.90
3023;DHT22;1521;53.584;9.938;2022-12-26T08:09:46;8.20;99.90
3023;DHT22;1521;53.584;9.938;2022-12-26T08:12:11;8.20;99.90
3023;DHT22;1521;53.584;9.938;2022-12-26T08:14:38;8.20;99.90
3023;DHT22;1521;53.584;9.938;2022-12-26T08:17:03;8.20;99.90
3023;DHT22;1521;53.584;9.938;2022-12-26T08:19:29;8.30;99.90
3023;DHT22;1521;53.584;9.938;2022-12-26T08:21:55;8.30;99.90
3023;DHT22;1521;53.584;9.938;2022-12-26T08:24:20;8.30;99.90
3023;DHT22;1521;53.584;9.938;2022-12-26T08:26:46;8.30;99.90
3023;DHT22;1521;53.584;9.938;2022-12-26T08:29:11;8.40;99.90
3023;DHT22;1521;53.584;9.938;2022-12-26T08:31:37;8.40;99.90
3023;DHT22;1521;53.584;9.938;2022-12-26T08:34:03;8.40;99.90
3023;DHT22;1521;53.584;9.938;2022-12-26T08:36:29;8.40;99.90
3023;DHT22;1521;53.584;9.938;2022-12-26T08:38:54;8.40;99.90
3023;DHT22;1521;53.584;9.938;2022-12-26T08:41:21;8.40;99.90
3023;DHT22;1521;53.584;9.938;2022-12-26T08:43:48;8.40;99.90
3023;DHT22;1521;53.584;9.938;2022-12-26T08:46:14;8.40;99.90
3023;DHT22;1521;53.584;9.938;2022-12-26T08:48:40;8.40;99.90
3023;DHT22;1521;53.584;9.938;2022-12-26T08:51:09;8.50;99.90
3023;DHT22;1521;53.584;9.938;2022-12-26T08:53:36;8.50;99.90
3023;DHT22;1521;53.584;9.938;2022-12-26T08:56:03;8.50;99.90
3023;DHT22;1521;53.584;9.938;2022-12-26T08:58:30;8.50;99.90
3023;DHT22;1521;53.584;9.938;2022-12-26T09:01:14;8.50;99.90
3023;DHT22;1521;53.584;9.938;2022-12-26T09:03:40;8.60;99.90
3023;DHT22;1521;53.584;9.938;2022-12-26T09:06:06;8.60;99.90
3023;DHT22;1521;53.584;9.938;2022-12-26T09:08:33;8.60;99.90
3023;DHT22;1521;53.584;9.938;2022-12-26T09:11:08;8.70;99.90
3023;DHT22;1521;53.584;9.938;2022-12-26T09:13:34;8.70;99.90
3023;DHT22;1521;53.584;9.938;2022-12-26T09:16:27;8.70;99.90
3023;DHT22;1521;53.584;9.938;2022-12-26T09:18:59;8.70;99.90
3023;DHT22;1521;53.584;9.938;2022-12-26T09:21:25;8.70;99.90
3023;DHT22;1521;53.584;9.938;2022-12-26T09:23:59;8.70;99.90
3023;DHT22;1521;53.584;9.938;2022-12-26T09:26:26;8.70;99.90
3023;DHT22;1521;53.584;9.938;2022-12-26T09:28:52;8.70;99.90
3023;DHT22;1521;53.584;9.938;2022-12-26T09:31:21;8.70;99.90
3023;DHT22;1521;53.584;9.938;2022-12-26T09:33:47;8.70;99.90
3023;DHT22;1521;53.584;9.938;2022-12-26T09:36:16;8.70;99.90
3023;DHT22;1521;53.584;9.938;2022-12-26T09:38:43;8.80;99.90
3023;DHT22;1521;53.584;9.938;2022-12-26T09:52:34;8.80;99.90
3023;DHT22;1521;53.584;9.938;2022-12-26T09:58:00;8.90;99.90
3023;DHT22;1521;53.584;9.938;2022-12-26T10:00:35;8.90;99.90
3023;DHT22;1521;53.584;9.938;2022-12-26T10:03:03;8.90;99.90
3023;DHT22;1521;53.584;9.938;2022-12-26T10:05:37;8.90;99.90
3023;DHT22;1521;53.584;9.938;2022-12-26T10:08:22;8.90;98.30
3023;DHT22;1521;53.584;9.938;2022-12-26T10:11:02;9.00;82.20
3023;DHT22;1521;53.584;9.938;2022-12-26T10:13:50;9.00;68.40
3023;DHT22;1521;53.584;9.938;2022-12-26T10:24:06;9.00;10.30
3023;DHT22;1521;53.584;9.938;2022-12-26T10:26:36;9.00;1.00
3023;DHT22;1521;53.584;9.938;2022-12-26T10:31:51;9.10;1.00
3023;DHT22;1521;53.584;9.938;2022-12-26T10:34:39;9.10;1.00
3023;DHT22;1521;53.584;9.938;2022-12-26T10:42:42;9.10;1.00
3023;DHT22;1521;53.584;9.938;2022-12-26T10:45:17;9.10;1.00
3023;DHT22;1521;53.584;9.938;2022-12-26T10:47:46;9.20;1.00
3023;DHT22;1521;53.584;9.938;2022-12-26T10:50:28;9.10;1.00
3023;DHT22;1521;53.584;9.938;2022-12-26T10:52:56;9.20;1.00
3023;DHT22;1521;53.584;9.938;2022-12-26T10:55:26;9.30;1.00
3023;DHT22;1521;53.584;9.938;2022-12-26T10:57:53;9.30;1.00
3023;DHT22;1521;53.584;9.938;2022-12-26T11:00:24;9.40;1.00
3023;DHT22;1521;53.584;9.938;2022-12-26T11:03:09;9.40;1.00
3023;DHT22;1521;53.584;9.938;2022-12-26T11:05:41;9.40;1.00
3023;DHT22;1521;53.584;9.938;2022-12-26T11:08:24;9.40;1.00
3023;DHT22;1521;53.584;9.938;2022-12-26T11:11:21;9.40;1.00
3023;DHT22;1521;53.584;9.938;2022-12-26T11:13:54;9.40;1.00
3023;DHT22;1521;53.584;9.938;2022-12-26T11:16:36;9.40;1.00
3023;DHT22;1521;53.584;9.938;2022-12-26T11:19:02;9.30;1.00
3023;DHT22;1521;53.584;9.938;2022-12-26T11:21:30;9.40;1.00
3023;DHT22;1521;53.584;9.938;2022-12-26T11:24:19;9.40;1.00
3023;DHT22;1521;53.584;9.938;2022-12-26T11:26:45;9.30;1.00
3023;DHT22;1521;53.584;9.938;2022-12-26T11:29:21;9.30;1.00
3023;DHT22;1521;53.584;9.938;2022-12-26T11:31:55;9.30;1.00
3023;DHT22;1521;53.584;9.938;2022-12-26T11:34:34;9.30;1.00
3023;DHT22;1521;53.584;9.938;2022-12-26T11:37:01;9.30;1.00
3023;DHT22;1521;53.584;9.938;2022-12-26T11:39:30;9.30;1.00
3023;DHT22;1521;53.584;9.938;2022-12-26T11:41:58;9.40;1.00
3023;DHT22;1521;53.584;9.938;2022-12-26T11:44:33;9.40;1.00
3023;DHT22;1521;53.584;9.938;2022-12-26T11:47:20;9.50;1.00
3023;DHT22;1521;53.584;9.938;2022-12-26T11:50:06;9.50;1.00
3023;DHT22;1521;53.584;9.938;2022-12-26T11:57:59;9.50;99.90
3023;DHT22;1521;53.584;9.938;2022-12-26T12:00:27;9.50;99.90
3023;DHT22;1521;53.584;9.938;2022-12-26T12:02:53;9.50;99.90
3023;DHT22;1521;53.584;9.938;2022-12-26T12:08:02;9.50;99.90
3023;DHT22;1521;53.584;9.938;2022-12-26T12:10:40;9.50;99.90
3023;DHT22;1521;53.584;9.938;2022-12-26T12:13:28;9.50;99.90
3023;DHT22;1521;53.584;9.938;2022-12-26T12:16:16;9.40;99.90
3023;DHT22;1521;53.584;9.938;2022-12-26T12:21:53;9.40;1.00
3023;DHT22;1521;53.584;9.938;2022-12-26T12:32:21;9.30;1.00
3023;DHT22;1521;53.584;9.938;2022-12-26T12:38:12;9.30;1.00
3023;DHT22;1521;53.584;9.938;2022-12-26T12:41:13;9.40;1.00
3023;DHT22;1521;53.584;9.938;2022-12-26T12:43:59;9.30;1.00
3023;DHT22;1521;53.584;9.938;2022-12-26T12:46:32;9.40;1.00
3023;DHT22;1521;53.584;9.938;2022-12-26T12:49:20;9.40;1.00
3023;DHT22;1521;53.584;9.938;2022-12-26T12:51:59;9.40;1.00
3023;DHT22;1521;53.584;9.938;2022-12-26T12:54:46;9.40;1.00
3023;DHT22;1521;53.584;9.938;2022-12-26T13:02:36;9.40;1.00
3023;DHT22;1521;53.584;9.938;2022-12-26T13:07:51;9.40;1.00
3023;DHT22;1521;53.584;9.938;2022-12-26T13:10:23;9.40;1.00
3023;DHT22;1521;53.584;9.938;2022-12-26T13:12:50;9.50;1.00
3023;DHT22;1521;53.584;9.938;2022-12-26T13:15:37;9.50;1.00
3023;DHT22;1521;53.584;9.938;2022-12-26T13:18:20;9.60;99.90
3023;DHT22;1521;53.584;9.938;2022-12-26T13:20:53;9.60;99.90
3023;DHT22;1521;53.584;9.938;2022-12-26T13:23:52;9.60;99.90
3023;DHT22;1521;53.584;9.938;2022-12-26T13:26:41;9.60;99.90
3023;DHT22;1521;53.584;9.938;2022-12-26T13:32:01;9.50;1.00
3023;DHT22;1521;53.584;9.938;2022-12-26T13:34:29;9.50;1.00
3023;DHT22;1521;53.584;9.938;2022-12-26T13:36:57;9.50;1.50
3023;DHT22;1521;53.584;9.938;2022-12-26T13:41:52;9.40;1.00
3023;DHT22;1521;53.584;9.938;2022-12-26T13:44:38;9.30;1.00
3023;DHT22;1521;53.584;9.938;2022-12-26T13:47:04;9.10;13.70
3023;DHT22;1521;53.584;9.938;2022-12-26T13:49:38;9.10;99.90
3023;DHT22;1521;53.584;9.938;2022-12-26T14:14:22;7.90;22.40
3023;DHT22;1521;53.584;9.938;2022-12-26T14:17:19;7.80;99.90
3023;DHT22;1521;53.584;9.938;2022-12-26T14:28:35;7.50;99.90
3023;DHT22;1521;53.584;9.938;2022-12-26T14:42:25;7.10;99.90
3023;DHT22;1521;53.584;9.938;2022-12-26T14:47:58;7.00;99.90
3023;DHT22;1521;53.584;9.938;2022-12-26T14:50:39;7.00;99.90
3023;DHT22;1521;53.584;9.938;2022-12-26T14:58:39;6.90;99.90
3023;DHT22;1521;53.584;9.938;2022-12-26T15:14:34;6.40;1.00
3023;DHT22;1521;53.584;9.938;2022-12-26T15:30:27;6.10;1.00
3023;DHT22;1521;53.584;9.938;2022-12-26T15:33:06;6.10;1.00
3023;DHT22;1521;53.584;9.938;2022-12-26T15:35:44;6.20;1.00
3023;DHT22;1521;53.584;9.938;2022-12-26T15:43:46;6.10;99.90
3023;DHT22;1521;53.584;9.938;2022-12-26T15:46:29;6.00;99.90
3023;DHT22;1521;53.584;9.938;2022-12-26T15:52:10;6.00;99.90
3023;DHT22;1521;53.584;9.938;2022-12-26T15:54:54;5.90;99.90
3023;DHT22;1521;53.584;9.938;2022-12-26T16:00:08;5.90;99.90
3023;DHT22;1521;53.584;9.938;2022-12-26T16:02:40;5.80;99.90
3023;DHT22;1521;53.584;9.938;2022-12-26T16:05:31;5.80;99.90
3023;DHT22;1521;53.584;9.938;2022-12-26T16:10:47;5.80;99.90
3023;DHT22;1521;53.584;9.938;2022-12-26T16:15:51;5.80;5.10
3023;DHT22;1521;53.584;9.938;2022-12-26T16:18:24;5.80;1.00
3023;DHT22;1521;53.584;9.938;2022-12-26T16:20:52;5.80;99.90
3023;DHT22;1521;53.584;9.938;2022-12-26T16:23:39;5.90;99.90
3023;DHT22;1521;53.584;9.938;2022-12-26T16:26:05;5.80;1.00
3023;DHT22;1521;53.584;9.938;2022-12-26T16:28:38;5.80;99.90
3023;DHT22;1521;53.584;9.938;2022-12-26T16:31:05;5.70;99.90
3023;DHT22;1521;53.584;9.938;2022-12-26T16:33:37;5.70;99.90
3023;DHT22;1521;53.584;9.938;2022-12-26T16:36:03;5.60;1.00
3023;DHT22;1521;53.584;9.938;2022-12-26T16:38:30;5.60;1.00
3023;DHT22;1521;53.584;9.938;2022-12-26T16:40:56;5.50;1.00
3023;DHT22;1521;53.584;9.938;2022-12-26T16:43:31;5.50;99.90
3023;DHT22;1521;53.584;9.938;2022-12-26T16:46:02;5.50;99.90
3023;DHT22;1521;53.584;9.938;2022-12-26T16:48:31;5.40;1.00
3023;DHT22;1521;53.584;9.938;2022-12-26T16:50:59;5.40;1.00
3023;DHT22;1521;53.584;9.938;2022-12-26T16:56:35;5.40;1.00
3023;DHT22;1521;53.584;9.938;2022-12-26T16:59:03;5.40;1.00
3023;DHT22;1521;53.584;9.938;2022-12-26T17:01:30;5.40;1.00
3023;DHT22;1521;53.584;9.938;2022-12-26T17:06:39;5.30;1.00
3023;DHT22;1521;53.584;9.938;2022-12-26T17:09:11;5.20;1.00
3023;DHT22;1521;53.584;9.938;2022-12-26T17:11:50;5.20;1.00
3023;DHT22;1521;53.584;9.938;2022-12-26T17:14:38;5.20;1.00
3023;DHT22;1521;53.584;9.938;2022-12-26T17:17:10;5.20;1.00
3023;DHT22;1521;53.584;9.938;2022-12-26T17:19:53;5.20;1.00
3023;DHT22;1521;53.584;9.938;2022-12-26T17:27:45;5.20;1.00
3023;DHT22;1521;53.584;9.938;2022-12-26T17:32:46;5.20;1.00
3023;DHT22;1521;53.584;9.938;2022-12-26T17:35:18;5.10;1.00
3023;DHT22;1521;53.584;9.938;2022-12-26T17:37:48;5.20;1.00
3023;DHT22;1521;53.584;9.938;2022-12-26T17:42:53;5.20;99.90
3023;DHT22;1521;53.584;9.938;2022-12-26T17:45:22;5.20;99.90
3023;DHT22;1521;53.584;9.938;2022-12-26T17:47:53;5.20;99.90
3023;DHT22;1521;53.584;9.938;2022-12-26T17:50:20;5.30;99.90
3023;DHT22;1521;53.584;9.938;2022-12-26T17:52:46;5.30;1.00
3023;DHT22;1521;53.584;9.938;2022-12-26T17:55:18;5.20;1.00
3023;DHT22;1521;53.584;9.938;2022-12-26T17:57:46;5.10;99.90
3023;DHT22;1521;53.584;9.938;2022-12-26T18:00:20;5.10;99.90
3023;DHT22;1521;53.584;9.938;2022-12-26T18:02:47;5.10;99.90
3023;DHT22;1521;53.584;9.938;2022-12-26T18:05:12;5.20;1.00
3023;DHT22;1521;53.584;9.938;2022-12-26T18:07:38;5.10;1.00
3023;DHT22;1521;53.584;9.938;2022-12-26T18:10:05;5.10;1.00
3023;DHT22;1521;53.584;9.938;2022-12-26T18:12:30;5.20;1.00
3023;DHT22;1521;53.584;9.938;2022-12-26T18:14:56;5.10;1.00
3023;DHT22;1521;53.584;9.938;2022-12-26T18:17:22;5.10;1.00
3023;DHT22;1521;53.584;9.938;2022-12-26T18:19:48;5.10;99.90
3023;DHT22;1521;53.584;9.938;2022-12-26T18:22:16;5.00;1.00
3023;DHT22;1521;53.584;9.938;2022-12-26T18:24:42;5.00;1.00
3023;DHT22;1521;53.584;9.938;2022-12-26T18:27:16;5.00;99.90
3023;DHT22;1521;53.584;9.938;2022-12-26T18:29:42;5.00;1.00
3023;DHT22;1521;53.584;9.938;2022-12-26T18:32:29;4.90;1.00
3023;DHT22;1521;53.584;9.938;2022-12-26T18:34:56;4.80;99.90
3023;DHT22;1521;53.584;9.938;2022-12-26T18:37:23;4.80;99.90
3023;DHT22;1521;53.584;9.938;2022-12-26T18:39:50;4.80;1.00
3023;DHT22;1521;53.584;9.938;2022-12-26T18:42:16;4.80;1.00
3023;DHT22;1521;53.584;9.938;2022-12-26T18:44:42;4.70;1.00
3023;DHT22;1521;53.584;9.938;2022-12-26T18:47:16;4.70;1.00
3023;DHT22;1521;53.584;9.938;2022-12-26T18:49:43;4.70;1.00
3023;DHT22;1521;53.584;9.938;2022-12-26T18:52:09;4.70;99.90
3023;DHT22;1521;53.584;9.938;2022-12-26T18:54:35;4.70;99.90
3023;DHT22;1521;53.584;9.938;2022-12-26T18:57:02;4.60;99.90
3023;DHT22;1521;53.584;9.938;2022-12-26T18:59:28;4.60;99.90
3023;DHT22;1521;53.584;9.938;2022-12-26T19:01:54;4.50;99.90
3023;DHT22;1521;53.584;9.938;2022-12-26T19:04:19;4.50;1.00
3023;DHT22;1521;53.584;9.938;2022-12-26T19:06:45;4.50;1.00
3023;DHT22;1521;53.584;9.938;2022-12-26T19:09:12;4.50;1.00
3023;DHT22;1521;53.584;9.938;2022-12-26T19:11:39;4.50;1.00
3023;DHT22;1521;53.584;9.938;2022-12-26T19:14:06;4.50;1.00
3023;DHT22;1521;53.584;9.938;2022-12-26T19:16:33;4.50;1.00
3023;DHT22;1521;53.584;9.938;2022-12-26T19:18:58;4.40;1.00
3023;DHT22;1521;53.584;9.938;2022-12-26T19:21:24;4.50;1.00
3023;DHT22;1521;53.584;9.938;2022-12-26T19:23:50;4.50;1.00
3023;DHT22;1521;53.584;9.938;2022-12-26T19:26:17;4.40;99.90
3023;DHT22;1521;53.584;9.938;2022-12-26T19:28:43;4.40;99.90
3023;DHT22;1521;53.584;9.938;2022-12-26T19:31:11;4.30;1.00
3023;DHT22;1521;53.584;9.938;2022-12-26T19:33:37;4.40;1.00
3023;DHT22;1521;53.584;9.938;2022-12-26T19:36:04;4.40;1.00
3023;DHT22;1521;53.584;9.938;2022-12-26T19:38:30;4.40;99.90
3023;DHT22;1521;53.584;9.938;2022-12-26T19:41:13;4.40;99.90
3023;DHT22;1521;53.584;9.938;2022-12-26T19:43:40;4.30;99.90
3023;DHT22;1521;53.584;9.938;2022-12-26T19:46:08;4.30;1.00
3023;DHT22;1521;53.584;9.938;2022-12-26T19:48:36;4.30;1.00
3023;DHT22;1521;53.584;9.938;2022-12-26T19:51:07;4.20;1.00
3023;DHT22;1521;53.584;9.938;2022-12-26T19:53:34;4.20;1.00
3023;DHT22;1521;53.584;9.938;2022-12-26T19:56:08;4.30;1.00
3023;DHT22;1521;53.584;9.938;2022-12-26T19:58:35;4.30;1.00
3023;DHT22;1521;53.584;9.938;2022-12-26T20:01:10;4.20;1.00
3023;DHT22;1521;53.584;9.938;2022-12-26T20:03:36;4.20;1.00
3023;DHT22;1521;53.584;9.938;2022-12-26T20:06:13;4.20;1.00
3023;DHT22;1521;53.584;9.938;2022-12-26T20:08:40;4.20;1.00
3023;DHT22;1521;53.584;9.938;2022-12-26T20:11:13;4.20;1.00
3023;DHT22;1521;53.584;9.938;2022-12-26T20:13:40;4.20;1.00
3023;DHT22;1521;53.584;9.938;2022-12-26T20:16:08;4.20;1.00
3023;DHT22;1521;53.584;9.938;2022-12-26T20:18:37;4.20;1.00